sensor_id;sensor_type;location;lat;lon;timestamp;temperature;humidity
45491;DHT22;31237;45.586;13.782;2022-09-14T00:00:59;19.90;90.50
45491;DHT22;31237;45.586;13.782;2022-09-14T00:03:25;19.90;90.50
45491;DHT22;31237;45.586;13.782;2022-09-14T00:05:51;19.90;90.50
45491;DHT22;31237;45.586;13.782;2022-09-14T00:08:17;19.90;90.50
45491;DHT22;31237;45.586;13.782;2022-09-14T00:10:44;19.80;90.50
45491;DHT22;31237;45.586;13.782;2022-09-14T00:13:12;19.80;90.50
45491;DHT22;31237;45.586;13.782;2022-09-14T00:15:39;19.80;90.50
45491;DHT22;31237;45.586;13.782;2022-09-14T00:18:08;19.80;90.50
45491;DHT22;31237;45.586;13.782;2022-09-14T00:20:34;19.80;90.40
45491;DHT22;31237;45.586;13.782;2022-09-14T00:23:00;19.70;90.40
45491;DHT22;31237;45.586;13.782;2022-09-14T00:25:26;19.70;90.40
45491;DHT22;31237;45.586;13.782;2022-09-14T00:27:53;19.70;90.40
45491;DHT22;31237;45.586;13.782;2022-09-14T00:30:20;19.70;90.40
45491;DHT22;31237;45.586;13.782;2022-09-14T00:32:47;19.60;90.30
45491;DHT22;31237;45.586;13.782;2022-09-14T00:35:13;19.70;90.40
45491;DHT22;31237;45.586;13.782;2022-09-14T00:37:38;19.60;90.30
45491;DHT22;31237;45.586;13.782;2022-09-14T00:40:04;19.60;90.30
45491;DHT22;31237;45.586;13.782;2022-09-14T00:42:30;19.60;90.30
45491;DHT22;31237;45.586;13.782;2022-09-14T00:44:59;19.60;90.30
45491;DHT22;31237;45.586;13.782;2022-09-14T00:47:26;19.60;90.30
45491;DHT22;31237;45.586;13.782;2022-09-14T00:49:53;19.60;90.30
45491;DHT22;31237;45.586;13.782;2022-09-14T00:52:22;19.60;90.30
45491;DHT22;31237;45.586;13.782;2022-09-14T00:54:51;19.60;90.30
45491;DHT22;31237;45.586;13.782;2022-09-14T00:57:18;19.60;90.20
45491;DHT22;31237;45.586;13.782;2022-09-14T00:59:46;19.60;90.20
45491;DHT22;31237;45.586;13.782;2022-09-14T01:02:13;19.60;90.20
45491;DHT22;31237;45.586;13.782;2022-09-14T01:04:40;19.60;90.20
45491;DHT22;31237;45.586;13.782;2022-09-14T01:15:14;19.60;90.20
45491;DHT22;31237;45.586;13.782;2022-09-14T01:17:45;19.60;90.20
45491;DHT22;31237;45.586;13.782;2022-09-14T01:20:30;19.60;90.20
45491;DHT22;31237;45.586;13.782;2022-09-14T01:23:21;19.60;90.20
45491;DHT22;31237;45.586;13.782;2022-09-14T01:31:20;19.60;90.10
45491;DHT22;31237;45.586;13.782;2022-09-14T01:33:53;19.60;90.10
45491;DHT22;31237;45.586;13.782;2022-09-14T01:36:20;19.60;90.10
45491;DHT22;31237;45.586;13.782;2022-09-14T01:38:47;19.60;90.10
45491;DHT22;31237;45.586;13.782;2022-09-14T01:41:18;19.60;90.10
45491;DHT22;31237;45.586;13.782;2022-09-14T01:43:52;19.60;90.10
45491;DHT22;31237;45.586;13.782;2022-09-14T01:46:42;19.60;90.10
45491;DHT22;31237;45.586;13.782;2022-09-14T01:51:49;19.60;90.20
45491;DHT22;31237;45.586;13.782;2022-09-14T01:54:25;19.60;90.20
45491;DHT22;31237;45.586;13.782;2022-09-14T01:56:55;19.70;90.30
45491;DHT22;31237;45.586;13.782;2022-09-14T01:59:26;19.70;90.30
45491;DHT22;31237;45.586;13.782;2022-09-14T02:07:15;19.70;90.30
45491;DHT22;31237;45.586;13.782;2022-09-14T02:09:41;19.70;90.40
45491;DHT22;31237;45.586;13.782;2022-09-14T02:12:07;19.70;90.40
45491;DHT22;31237;45.586;13.782;2022-09-14T02:14:33;19.70;90.50
45491;DHT22;31237;45.586;13.782;2022-09-14T02:16:59;19.70;90.50
45491;DHT22;31237;45.586;13.782;2022-09-14T02:19:29;19.70;90.50
45491;DHT22;31237;45.586;13.782;2022-09-14T02:21:55;19.70;90.50
45491;DHT22;31237;45.586;13.782;2022-09-14T02:24:21;19.70;90.50
45491;DHT22;31237;45.586;13.782;2022-09-14T02:26:48;19.70;90.50
45491;DHT22;31237;45.586;13.782;2022-09-14T02:29:15;19.70;90.50
45491;DHT22;31237;45.586;13.782;2022-09-14T02:48:20;19.70;90.20
45491;DHT22;31237;45.586;13.782;2022-09-14T02:51:18;19.70;90.20
45491;DHT22;31237;45.586;13.782;2022-09-14T02:54:05;19.70;90.20
45491;DHT22;31237;45.586;13.782;2022-09-14T02:56:34;19.70;90.20
45491;DHT22;31237;45.586;13.782;2022-09-14T02:59:00;19.70;90.20
45491;DHT22;31237;45.586;13.782;2022-09-14T03:01:26;19.70;90.10
45491;DHT22;31237;45.586;13.782;2022-09-14T03:03:52;19.70;90.10
45491;DHT22;31237;45.586;13.782;2022-09-14T03:06:18;19.70;90.00
45491;DHT22;31237;45.586;13.782;2022-09-14T03:08:44;19.80;90.00
45491;DHT22;31237;45.586;13.782;2022-09-14T03:11:10;19.80;90.00
45491;DHT22;31237;45.586;13.782;2022-09-14T03:13:35;19.80;90.00
45491;DHT22;31237;45.586;13.782;2022-09-14T03:16:14;19.80;89.90
45491;DHT22;31237;45.586;13.782;2022-09-14T03:18:40;19.80;89.70
45491;DHT22;31237;45.586;13.782;2022-09-14T03:21:09;19.80;89.80
45491;DHT22;31237;45.586;13.782;2022-09-14T03:23:41;19.80;89.70
45491;DHT22;31237;45.586;13.782;2022-09-14T03:26:09;19.80;89.60
45491;DHT22;31237;45.586;13.782;2022-09-14T03:28:35;19.80;89.50
45491;DHT22;31237;45.586;13.782;2022-09-14T03:31:03;19.90;89.60
45491;DHT22;31237;45.586;13.782;2022-09-14T03:33:28;19.90;89.50
45491;DHT22;31237;45.586;13.782;2022-09-14T03:35:54;19.90;89.40
45491;DHT22;31237;45.586;13.782;2022-09-14T03:38:20;19.90;89.40
45491;DHT22;31237;45.586;13.782;2022-09-14T03:40:46;19.90;89.40
45491;DHT22;31237;45.586;13.782;2022-09-14T03:43:13;19.90;89.40
45491;DHT22;31237;45.586;13.782;2022-09-14T03:45:39;19.90;89.40
45491;DHT22;31237;45.586;13.782;2022-09-14T03:48:05;19.90;89.40
45491;DHT22;31237;45.586;13.782;2022-09-14T03:50:32;19.90;89.40
45491;DHT22;31237;45.586;13.782;2022-09-14T03:52:57;19.90;89.40
45491;DHT22;31237;45.586;13.782;2022-09-14T03:55:24;19.90;89.40
45491;DHT22;31237;45.586;13.782;2022-09-14T03:57:54;19.90;89.40
45491;DHT22;31237;45.586;13.782;2022-09-14T04:00:20;19.90;89.30
45491;DHT22;31237;45.586;13.782;2022-09-14T04:02:45;19.90;89.30
45491;DHT22;31237;45.586;13.782;2022-09-14T04:05:11;19.90;89.30
45491;DHT22;31237;45.586;13.782;2022-09-14T04:07:37;19.80;89.20
45491;DHT22;31237;45.586;13.782;2022-09-14T04:10:03;19.80;89.10
45491;DHT22;31237;45.586;13.782;2022-09-14T04:12:36;19.90;89.10
45491;DHT22;31237;45.586;13.782;2022-09-14T04:15:06;19.80;89.00
45491;DHT22;31237;45.586;13.782;2022-09-14T04:17:32;19.80;89.00
45491;DHT22;31237;45.586;13.782;2022-09-14T04:19:57;19.90;88.90
45491;DHT22;31237;45.586;13.782;2022-09-14T04:22:23;19.90;88.90
45491;DHT22;31237;45.586;13.782;2022-09-14T04:24:49;19.80;88.80
45491;DHT22;31237;45.586;13.782;2022-09-14T04:27:15;19.80;88.80
45491;DHT22;31237;45.586;13.782;2022-09-14T04:29:41;19.80;88.80
45491;DHT22;31237;45.586;13.782;2022-09-14T04:32:06;19.80;88.80
45491;DHT22;31237;45.586;13.782;2022-09-14T04:34:33;19.80;88.80
45491;DHT22;31237;45.586;13.782;2022-09-14T04:37:00;19.80;88.80
45491;DHT22;31237;45.586;13.782;2022-09-14T04:39:25;19.80;88.80
45491;DHT22;31237;45.586;13.782;2022-09-14T04:41:51;19.80;88.90
45491;DHT22;31237;45.586;13.782;2022-09-14T04:44:17;19.90;89.00
45491;DHT22;31237;45.586;13.782;2022-09-14T04:46:43;19.80;88.90
45491;DHT22;31237;45.586;13.782;2022-09-14T04:49:09;19.80;88.90
45491;DHT22;31237;45.586;13.782;2022-09-14T04:51:36;19.80;88.90
45491;DHT22;31237;45.586;13.782;2022-09-14T04:54:03;19.80;89.00
45491;DHT22;31237;45.586;13.782;2022-09-14T04:56:34;19.90;89.10
45491;DHT22;31237;45.586;13.782;2022-09-14T04:59:02;19.80;89.00
45491;DHT22;31237;45.586;13.782;2022-09-14T05:01:34;19.90;89.00
45491;DHT22;31237;45.586;13.782;2022-09-14T05:04:01;19.90;89.00
45491;DHT22;31237;45.586;13.782;2022-09-14T05:06:29;19.90;89.00
45491;DHT22;31237;45.586;13.782;2022-09-14T05:08:55;19.90;88.90
45491;DHT22;31237;45.586;13.782;2022-09-14T05:11:27;19.90;88.90
45491;DHT22;31237;45.586;13.782;2022-09-14T05:13:58;19.90;88.80
45491;DHT22;31237;45.586;13.782;2022-09-14T05:16:29;19.90;88.80
45491;DHT22;31237;45.586;13.782;2022-09-14T05:18:57;20.00;88.70
45491;DHT22;31237;45.586;13.782;2022-09-14T05:21:26;20.00;88.70
45491;DHT22;31237;45.586;13.782;2022-09-14T05:23:57;20.00;88.70
45491;DHT22;31237;45.586;13.782;2022-09-14T05:26:24;20.00;88.60
45491;DHT22;31237;45.586;13.782;2022-09-14T05:28:52;20.00;88.50
45491;DHT22;31237;45.586;13.782;2022-09-14T05:31:19;20.10;88.50
45491;DHT22;31237;45.586;13.782;2022-09-14T05:33:45;20.10;88.40
45491;DHT22;31237;45.586;13.782;2022-09-14T05:36:10;20.10;88.40
45491;DHT22;31237;45.586;13.782;2022-09-14T05:38:38;20.10;88.30
45491;DHT22;31237;45.586;13.782;2022-09-14T05:41:05;20.10;88.30
45491;DHT22;31237;45.586;13.782;2022-09-14T05:43:31;20.10;88.20
45491;DHT22;31237;45.586;13.782;2022-09-14T05:46:14;20.20;88.20
45491;DHT22;31237;45.586;13.782;2022-09-14T05:48:41;20.20;88.20
45491;DHT22;31237;45.586;13.782;2022-09-14T05:51:15;20.20;88.20
45491;DHT22;31237;45.586;13.782;2022-09-14T05:53:42;20.30;88.20
45491;DHT22;31237;45.586;13.782;2022-09-14T05:56:10;20.30;88.10
45491;DHT22;31237;45.586;13.782;2022-09-14T05:58:37;20.30;88.10
45491;DHT22;31237;45.586;13.782;2022-09-14T06:01:24;20.30;88.10
45491;DHT22;31237;45.586;13.782;2022-09-14T06:03:55;20.30;88.10
45491;DHT22;31237;45.586;13.782;2022-09-14T06:06:22;20.30;88.10
45491;DHT22;31237;45.586;13.782;2022-09-14T06:08:49;20.30;88.10
45491;DHT22;31237;45.586;13.782;2022-09-14T06:11:19;20.30;88.20
45491;DHT22;31237;45.586;13.782;2022-09-14T06:13:45;20.40;88.30
45491;DHT22;31237;45.586;13.782;2022-09-14T06:16:17;20.40;88.30
45491;DHT22;31237;45.586;13.782;2022-09-14T06:18:44;20.40;88.40
45491;DHT22;31237;45.586;13.782;2022-09-14T06:21:12;20.50;88.50
45491;DHT22;31237;45.586;13.782;2022-09-14T06:23:42;20.60;88.60
45491;DHT22;31237;45.586;13.782;2022-09-14T06:26:08;20.60;88.70
45491;DHT22;31237;45.586;13.782;2022-09-14T06:28:35;20.70;88.70
45491;DHT22;31237;45.586;13.782;2022-09-14T06:31:02;20.70;88.50
45491;DHT22;31237;45.586;13.782;2022-09-14T06:33:29;20.80;88.50
45491;DHT22;31237;45.586;13.782;2022-09-14T06:36:04;20.90;88.30
45491;DHT22;31237;45.586;13.782;2022-09-14T06:38:34;21.00;88.20
45491;DHT22;31237;45.586;13.782;2022-09-14T06:41:01;21.10;88.10
45491;DHT22;31237;45.586;13.782;2022-09-14T06:43:31;21.10;87.90
45491;DHT22;31237;45.586;13.782;2022-09-14T06:45:59;21.20;87.80
45491;DHT22;31237;45.586;13.782;2022-09-14T06:48:33;21.30;87.70
45491;DHT22;31237;45.586;13.782;2022-09-14T06:50:59;21.40;87.70
45491;DHT22;31237;45.586;13.782;2022-09-14T06:53:25;21.50;87.60
45491;DHT22;31237;45.586;13.782;2022-09-14T06:55:51;21.60;87.40
45491;DHT22;31237;45.586;13.782;2022-09-14T06:58:17;21.70;87.30
45491;DHT22;31237;45.586;13.782;2022-09-14T07:00:43;21.80;87.00
45491;DHT22;31237;45.586;13.782;2022-09-14T07:03:09;21.90;86.80
45491;DHT22;31237;45.586;13.782;2022-09-14T07:05:34;22.00;86.60
45491;DHT22;31237;45.586;13.782;2022-09-14T07:08:00;22.00;86.20
45491;DHT22;31237;45.586;13.782;2022-09-14T07:10:26;22.10;86.10
45491;DHT22;31237;45.586;13.782;2022-09-14T07:12:58;22.20;85.90
45491;DHT22;31237;45.586;13.782;2022-09-14T07:15:24;22.20;85.80
45491;DHT22;31237;45.586;13.782;2022-09-14T07:17:50;22.20;85.70
45491;DHT22;31237;45.586;13.782;2022-09-14T07:20:15;22.30;85.60
45491;DHT22;31237;45.586;13.782;2022-09-14T07:22:41;22.30;85.40
45491;DHT22;31237;45.586;13.782;2022-09-14T07:25:08;22.40;85.30
45491;DHT22;31237;45.586;13.782;2022-09-14T07:27:34;22.40;85.20
45491;DHT22;31237;45.586;13.782;2022-09-14T07:30:00;22.40;85.10
45491;DHT22;31237;45.586;13.782;2022-09-14T07:32:26;22.50;85.10
45491;DHT22;31237;45.586;13.782;2022-09-14T07:34:52;22.50;85.00
45491;DHT22;31237;45.586;13.782;2022-09-14T07:37:17;22.50;84.80
45491;DHT22;31237;45.586;13.782;2022-09-14T07:39:43;22.50;84.70
45491;DHT22;31237;45.586;13.782;2022-09-14T07:42:09;22.60;84.90
45491;DHT22;31237;45.586;13.782;2022-09-14T07:44:34;22.60;84.90
45491;DHT22;31237;45.586;13.782;2022-09-14T07:47:00;22.70;84.90
45491;DHT22;31237;45.586;13.782;2022-09-14T07:49:26;22.70;84.70
45491;DHT22;31237;45.586;13.782;2022-09-14T07:51:52;22.80;84.60
45491;DHT22;31237;45.586;13.782;2022-09-14T07:54:18;22.90;84.60
45491;DHT22;31237;45.586;13.782;2022-09-14T07:56:44;23.00;84.50
45491;DHT22;31237;45.586;13.782;2022-09-14T07:59:12;23.10;84.30
45491;DHT22;31237;45.586;13.782;2022-09-14T08:01:38;23.20;84.00
45491;DHT22;31237;45.586;13.782;2022-09-14T08:04:04;23.30;83.70
45491;DHT22;31237;45.586;13.782;2022-09-14T08:06:30;23.40;83.50
45491;DHT22;31237;45.586;13.782;2022-09-14T08:08:56;23.60;83.30
45491;DHT22;31237;45.586;13.782;2022-09-14T08:11:30;23.60;83.20
45491;DHT22;31237;45.586;13.782;2022-09-14T08:14:01;23.70;83.10
45491;DHT22;31237;45.586;13.782;2022-09-14T08:16:29;23.90;82.90
45491;DHT22;31237;45.586;13.782;2022-09-14T08:18:58;24.00;82.80
45491;DHT22;31237;45.586;13.782;2022-09-14T08:21:26;24.20;82.60
45491;DHT22;31237;45.586;13.782;2022-09-14T08:23:52;24.40;82.50
45491;DHT22;31237;45.586;13.782;2022-09-14T08:26:20;24.50;82.00
45491;DHT22;31237;45.586;13.782;2022-09-14T08:28:47;24.70;81.60
45491;DHT22;31237;45.586;13.782;2022-09-14T08:31:18;24.90;81.30
45491;DHT22;31237;45.586;13.782;2022-09-14T08:33:50;25.00;80.70
45491;DHT22;31237;45.586;13.782;2022-09-14T08:36:19;25.00;80.30
45491;DHT22;31237;45.586;13.782;2022-09-14T08:38:45;25.10;80.10
45491;DHT22;31237;45.586;13.782;2022-09-14T08:43:42;25.30;79.80
45491;DHT22;31237;45.586;13.782;2022-09-14T08:46:14;25.30;79.50
45491;DHT22;31237;45.586;13.782;2022-09-14T08:48:46;25.50;79.50
45491;DHT22;31237;45.586;13.782;2022-09-14T08:51:14;25.60;79.20
45491;DHT22;31237;45.586;13.782;2022-09-14T08:53:40;25.70;78.90
45491;DHT22;31237;45.586;13.782;2022-09-14T09:02:00;26.10;77.90
45491;DHT22;31237;45.586;13.782;2022-09-14T09:07:35;26.40;76.90
45491;DHT22;31237;45.586;13.782;2022-09-14T09:10:04;26.50;76.60
45491;DHT22;31237;45.586;13.782;2022-09-14T09:12:38;26.50;76.30
45491;DHT22;31237;45.586;13.782;2022-09-14T09:15:34;26.50;75.80
45491;DHT22;31237;45.586;13.782;2022-09-14T09:21:03;26.60;75.40
45491;DHT22;31237;45.586;13.782;2022-09-14T09:23:30;26.70;75.50
45491;DHT22;31237;45.586;13.782;2022-09-14T09:26:04;26.70;75.50
45491;DHT22;31237;45.586;13.782;2022-09-14T09:28:31;26.80;75.40
45491;DHT22;31237;45.586;13.782;2022-09-14T09:31:00;26.80;75.10
45491;DHT22;31237;45.586;13.782;2022-09-14T09:33:29;26.80;74.90
45491;DHT22;31237;45.586;13.782;2022-09-14T09:35:55;26.90;74.40
45491;DHT22;31237;45.586;13.782;2022-09-14T09:38:25;26.90;74.60
45491;DHT22;31237;45.586;13.782;2022-09-14T09:43:22;27.00;74.40
45491;DHT22;31237;45.586;13.782;2022-09-14T09:46:09;27.10;74.10
45491;DHT22;31237;45.586;13.782;2022-09-14T09:48:42;27.20;73.80
45491;DHT22;31237;45.586;13.782;2022-09-14T09:51:15;27.20;73.30
45491;DHT22;31237;45.586;13.782;2022-09-14T09:54:06;27.20;72.80
45491;DHT22;31237;45.586;13.782;2022-09-14T10:01:47;27.20;70.70
45491;DHT22;31237;45.586;13.782;2022-09-14T10:04:25;27.30;70.70
45491;DHT22;31237;45.586;13.782;2022-09-14T10:06:53;27.30;70.60
45491;DHT22;31237;45.586;13.782;2022-09-14T10:09:24;27.40;70.30
45491;DHT22;31237;45.586;13.782;2022-09-14T10:12:00;27.40;70.00
45491;DHT22;31237;45.586;13.782;2022-09-14T10:14:32;27.40;69.80
45491;DHT22;31237;45.586;13.782;2022-09-14T10:17:18;27.40;69.40
45491;DHT22;31237;45.586;13.782;2022-09-14T10:19:53;27.40;68.90
45491;DHT22;31237;45.586;13.782;2022-09-14T10:22:27;27.30;69.00
45491;DHT22;31237;45.586;13.782;2022-09-14T10:25:01;27.40;69.30
45491;DHT22;31237;45.586;13.782;2022-09-14T10:30:11;27.40;69.10
45491;DHT22;31237;45.586;13.782;2022-09-14T10:32:38;27.50;69.40
45491;DHT22;31237;45.586;13.782;2022-09-14T10:35:12;27.50;68.60
45491;DHT22;31237;45.586;13.782;2022-09-14T10:37:49;27.60;68.50
45491;DHT22;31237;45.586;13.782;2022-09-14T10:40:21;27.60;68.70
45491;DHT22;31237;45.586;13.782;2022-09-14T10:43:15;27.60;68.30
45491;DHT22;31237;45.586;13.782;2022-09-14T10:48:29;27.70;67.50
45491;DHT22;31237;45.586;13.782;2022-09-14T10:56:17;27.70;67.20
45491;DHT22;31237;45.586;13.782;2022-09-14T11:06:48;27.90;66.40
45491;DHT22;31237;45.586;13.782;2022-09-14T11:12:17;27.90;66.30
45491;DHT22;31237;45.586;13.782;2022-09-14T11:28:36;28.20;65.40
45491;DHT22;31237;45.586;13.782;2022-09-14T11:36:39;28.40;64.80
45491;DHT22;31237;45.586;13.782;2022-09-14T11:39:36;28.40;64.50
45491;DHT22;31237;45.586;13.782;2022-09-14T11:42:15;28.50;65.00
45491;DHT22;31237;45.586;13.782;2022-09-14T11:44:42;28.50;64.30
45491;DHT22;31237;45.586;13.782;2022-09-14T11:47:16;28.50;64.10
45491;DHT22;31237;45.586;13.782;2022-09-14T11:49:57;28.60;63.80
45491;DHT22;31237;45.586;13.782;2022-09-14T11:52:27;28.60;63.40
45491;DHT22;31237;45.586;13.782;2022-09-14T11:54:53;28.60;63.00
45491;DHT22;31237;45.586;13.782;2022-09-14T11:57:24;28.60;63.10
45491;DHT22;31237;45.586;13.782;2022-09-14T11:59:52;28.60;63.10
45491;DHT22;31237;45.586;13.782;2022-09-14T12:10:17;28.90;62.50
45491;DHT22;31237;45.586;13.782;2022-09-14T12:12:57;28.90;62.10
45491;DHT22;31237;45.586;13.782;2022-09-14T12:15:43;28.90;61.80
45491;DHT22;31237;45.586;13.782;2022-09-14T12:20:47;28.80;61.50
45491;DHT22;31237;45.586;13.782;2022-09-14T12:23:41;28.70;61.30
45491;DHT22;31237;45.586;13.782;2022-09-14T12:28:51;28.70;61.10
45491;DHT22;31237;45.586;13.782;2022-09-14T12:34:19;28.70;61.30
45491;DHT22;31237;45.586;13.782;2022-09-14T12:39:33;28.70;60.70
45491;DHT22;31237;45.586;13.782;2022-09-14T12:42:23;28.60;60.30
45491;DHT22;31237;45.586;13.782;2022-09-14T12:44:47;28.60;60.40
45491;DHT22;31237;45.586;13.782;2022-09-14T12:49:54;28.60;60.50
45491;DHT22;31237;45.586;13.782;2022-09-14T12:53:01;28.60;60.50
45491;DHT22;31237;45.586;13.782;2022-09-14T12:55:47;28.70;60.40
45491;DHT22;31237;45.586;13.782;2022-09-14T13:01:22;28.70;59.90
45491;DHT22;31237;45.586;13.782;2022-09-14T13:03:53;28.70;59.70
45491;DHT22;31237;45.586;13.782;2022-09-14T13:06:21;28.60;59.70
45491;DHT22;31237;45.586;13.782;2022-09-14T13:08:54;28.50;59.60
45491;DHT22;31237;45.586;13.782;2022-09-14T13:11:31;28.40;59.70
45491;DHT22;31237;45.586;13.782;2022-09-14T13:13:59;28.30;59.70
45491;DHT22;31237;45.586;13.782;2022-09-14T13:16:37;28.20;59.80
45491;DHT22;31237;45.586;13.782;2022-09-14T13:19:16;28.20;59.80
45491;DHT22;31237;45.586;13.782;2022-09-14T13:21:56;28.20;60.20
45491;DHT22;31237;45.586;13.782;2022-09-14T13:24:42;28.20;60.30
45491;DHT22;31237;45.586;13.782;2022-09-14T13:27:20;28.20;60.30
45491;DHT22;31237;45.586;13.782;2022-09-14T13:29:47;28.20;60.30
45491;DHT22;31237;45.586;13.782;2022-09-14T13:32:20;28.30;60.50
45491;DHT22;31237;45.586;13.782;2022-09-14T13:34:46;28.30;60.40
45491;DHT22;31237;45.586;13.782;2022-09-14T13:37:13;28.30;60.90
45491;DHT22;31237;45.586;13.782;2022-09-14T13:39:39;28.30;60.20
45491;DHT22;31237;45.586;13.782;2022-09-14T13:42:07;28.30;60.10
45491;DHT22;31237;45.586;13.782;2022-09-14T13:44:43;28.30;60.10
45491;DHT22;31237;45.586;13.782;2022-09-14T13:47:14;28.30;60.00
45491;DHT22;31237;45.586;13.782;2022-09-14T13:49:41;28.20;59.90
45491;DHT22;31237;45.586;13.782;2022-09-14T13:52:30;28.20;59.80
45491;DHT22;31237;45.586;13.782;2022-09-14T13:57:36;28.10;60.00
45491;DHT22;31237;45.586;13.782;2022-09-14T14:00:16;28.00;60.20
45491;DHT22;31237;45.586;13.782;2022-09-14T14:02:48;27.90;60.30
45491;DHT22;31237;45.586;13.782;2022-09-14T14:07:54;27.80;60.40
45491;DHT22;31237;45.586;13.782;2022-09-14T14:10:37;27.80;60.70
45491;DHT22;31237;45.586;13.782;2022-09-14T14:13:04;27.80;60.90
45491;DHT22;31237;45.586;13.782;2022-09-14T14:15:32;27.80;61.10
45491;DHT22;31237;45.586;13.782;2022-09-14T14:17:58;27.80;61.10
45491;DHT22;31237;45.586;13.782;2022-09-14T14:20:36;27.70;61.00
45491;DHT22;31237;45.586;13.782;2022-09-14T14:23:17;27.70;61.20
45491;DHT22;31237;45.586;13.782;2022-09-14T14:25:47;27.60;61.40
45491;DHT22;31237;45.586;13.782;2022-09-14T14:28:23;27.60;61.70
45491;DHT22;31237;45.586;13.782;2022-09-14T14:30:50;27.50;61.90
45491;DHT22;31237;45.586;13.782;2022-09-14T14:33:17;27.50;61.90
45491;DHT22;31237;45.586;13.782;2022-09-14T14:35:44;27.40;62.10
45491;DHT22;31237;45.586;13.782;2022-09-14T14:38:10;27.40;62.20
45491;DHT22;31237;45.586;13.782;2022-09-14T14:40:37;27.40;62.40
45491;DHT22;31237;45.586;13.782;2022-09-14T14:43:03;27.40;62.50
45491;DHT22;31237;45.586;13.782;2022-09-14T14:45:30;27.40;62.50
45491;DHT22;31237;45.586;13.782;2022-09-14T14:47:58;27.30;62.50
45491;DHT22;31237;45.586;13.782;2022-09-14T14:50:29;27.30;62.40
45491;DHT22;31237;45.586;13.782;2022-09-14T14:52:55;27.30;62.30
45491;DHT22;31237;45.586;13.782;2022-09-14T14:55:22;27.30;62.20
45491;DHT22;31237;45.586;13.782;2022-09-14T14:57:49;27.20;62.20
45491;DHT22;31237;45.586;13.782;2022-09-14T15:00:21;27.10;62.30
45491;DHT22;31237;45.586;13.782;2022-09-14T15:02:47;27.10;62.40
45491;DHT22;31237;45.586;13.782;2022-09-14T15:05:13;27.00;62.50
45491;DHT22;31237;45.586;13.782;2022-09-14T15:07:39;27.00;62.70
45491;DHT22;31237;45.586;13.782;2022-09-14T15:10:06;27.00;62.90
45491;DHT22;31237;45.586;13.782;2022-09-14T15:12:33;27.00;63.00
45491;DHT22;31237;45.586;13.782;2022-09-14T15:14:59;27.00;63.10
45491;DHT22;31237;45.586;13.782;2022-09-14T15:17:25;27.10;63.20
45491;DHT22;31237;45.586;13.782;2022-09-14T15:19:52;27.10;63.30
45491;DHT22;31237;45.586;13.782;2022-09-14T15:22:18;27.10;63.10
45491;DHT22;31237;45.586;13.782;2022-09-14T15:24:47;27.10;63.10
45491;DHT22;31237;45.586;13.782;2022-09-14T15:27:14;27.10;63.00
45491;DHT22;31237;45.586;13.782;2022-09-14T15:29:40;27.00;63.00
45491;DHT22;31237;45.586;13.782;2022-09-14T15:32:06;27.00;63.30
45491;DHT22;31237;45.586;13.782;2022-09-14T15:34:31;27.00;63.40
45491;DHT22;31237;45.586;13.782;2022-09-14T15:36:57;26.90;63.40
45491;DHT22;31237;45.586;13.782;2022-09-14T15:39:27;26.90;63.60
45491;DHT22;31237;45.586;13.782;2022-09-14T15:41:55;26.80;63.70
45491;DHT22;31237;45.586;13.782;2022-09-14T15:44:21;26.80;63.90
45491;DHT22;31237;45.586;13.782;2022-09-14T15:46:48;26.70;64.00
45491;DHT22;31237;45.586;13.782;2022-09-14T15:49:22;26.70;64.20
45491;DHT22;31237;45.586;13.782;2022-09-14T15:51:49;26.60;64.30
45491;DHT22;31237;45.586;13.782;2022-09-14T15:54:16;26.60;64.50
45491;DHT22;31237;45.586;13.782;2022-09-14T15:56:43;26.50;64.60
45491;DHT22;31237;45.586;13.782;2022-09-14T15:59:12;26.50;64.80
45491;DHT22;31237;45.586;13.782;2022-09-14T16:01:37;26.40;64.90
45491;DHT22;31237;45.586;13.782;2022-09-14T16:04:05;26.40;65.10
45491;DHT22;31237;45.586;13.782;2022-09-14T16:06:31;26.30;65.30
45491;DHT22;31237;45.586;13.782;2022-09-14T16:09:00;26.30;65.50
45491;DHT22;31237;45.586;13.782;2022-09-14T16:11:25;26.20;65.60
45491;DHT22;31237;45.586;13.782;2022-09-14T16:13:52;26.20;65.90
45491;DHT22;31237;45.586;13.782;2022-09-14T16:16:19;26.00;66.00
45491;DHT22;31237;45.586;13.782;2022-09-14T16:18:45;26.00;66.10
45491;DHT22;31237;45.586;13.782;2022-09-14T16:21:19;26.00;66.30
45491;DHT22;31237;45.586;13.782;2022-09-14T16:23:51;25.90;66.40
45491;DHT22;31237;45.586;13.782;2022-09-14T16:26:20;25.90;66.60
45491;DHT22;31237;45.586;13.782;2022-09-14T16:28:47;25.80;66.70
45491;DHT22;31237;45.586;13.782;2022-09-14T16:31:20;25.80;66.90
45491;DHT22;31237;45.586;13.782;2022-09-14T16:33:48;25.70;67.10
45491;DHT22;31237;45.586;13.782;2022-09-14T16:36:18;25.60;67.10
45491;DHT22;31237;45.586;13.782;2022-09-14T16:38:44;25.60;67.20
45491;DHT22;31237;45.586;13.782;2022-09-14T16:41:11;25.50;67.40
45491;DHT22;31237;45.586;13.782;2022-09-14T16:43:37;25.50;67.40
45491;DHT22;31237;45.586;13.782;2022-09-14T16:46:06;25.50;67.50
45491;DHT22;31237;45.586;13.782;2022-09-14T16:48:34;25.40;67.60
45491;DHT22;31237;45.586;13.782;2022-09-14T16:51:00;25.40;67.70
45491;DHT22;31237;45.586;13.782;2022-09-14T16:53:28;25.40;67.80
45491;DHT22;31237;45.586;13.782;2022-09-14T16:56:08;25.40;67.90
45491;DHT22;31237;45.586;13.782;2022-09-14T16:58:35;25.30;68.00
45491;DHT22;31237;45.586;13.782;2022-09-14T17:01:10;25.20;68.00
45491;DHT22;31237;45.586;13.782;2022-09-14T17:03:37;25.20;68.20
45491;DHT22;31237;45.586;13.782;2022-09-14T17:06:07;25.20;68.40
45491;DHT22;31237;45.586;13.782;2022-09-14T17:08:34;25.10;68.40
45491;DHT22;31237;45.586;13.782;2022-09-14T17:11:01;25.10;68.60
45491;DHT22;31237;45.586;13.782;2022-09-14T17:13:28;25.10;68.80
45491;DHT22;31237;45.586;13.782;2022-09-14T17:18:27;25.00;69.20
45491;DHT22;31237;45.586;13.782;2022-09-14T17:20:54;25.00;69.40
45491;DHT22;31237;45.586;13.782;2022-09-14T17:23:21;24.90;69.60
45491;DHT22;31237;45.586;13.782;2022-09-14T17:25:46;24.90;69.90
45491;DHT22;31237;45.586;13.782;2022-09-14T17:28:12;24.90;70.20
45491;DHT22;31237;45.586;13.782;2022-09-14T17:30:38;24.80;70.40
45491;DHT22;31237;45.586;13.782;2022-09-14T17:33:04;24.80;70.60
45491;DHT22;31237;45.586;13.782;2022-09-14T17:35:30;24.70;70.90
45491;DHT22;31237;45.586;13.782;2022-09-14T17:37:56;24.70;71.10
45491;DHT22;31237;45.586;13.782;2022-09-14T17:40:21;24.70;71.30
45491;DHT22;31237;45.586;13.782;2022-09-14T17:42:47;24.60;71.50